Time;durP1;ratioP1;P1;durP2;ratioP2;P2;SDS_P1;SDS_P2;PMS_P1;PMS_P2;Temp;Humidity;BMP_temperature;BMP_pressure;BME280_temperature;BME280_humidity;BME280_pressure;Samples;Min_cycle;Max_cycle;Signal;HPM_P1;HPM_P2
2022/07/04 00:02:22;;;;;;;2.53;2.25;;;;;;;;;;5018750;28;20048;-71
2022/07/04 00:04:48;;;;;;;2.70;2.53;;;;;;;;;;5036751;28;20021;-77
2022/07/04 00:07:13;;;;;;;2.95;2.50;;;;;;;;;;5018691;28;20022;-77
2022/07/04 00:09:40;;;;;;;3.58;2.70;;;;;;;;;;5018600;28;20037;-77
2022/07/04 00:12:05;;;;;;;2.58;2.15;;;;;;;;;;5018745;28;20383;-78
2022/07/04 00:14:31;;;;;;;2.20;2.10;;;;;;;;;;5036338;28;20025;-78
2022/07/04 00:16:56;;;;;;;2.30;2.20;;;;;;;;;;5036488;28;20076;-77
2022/07/04 00:19:22;;;;;;;2.53;2.42;;;;;;;;;;5036466;28;20066;-77
2022/07/04 00:21:47;;;;;;;2.70;2.50;;;;;;;;;;5036192;28;20021;-77
2022/07/04 00:24:13;;;;;;;2.47;2.28;;;;;;;;;;5018184;28;20499;-77
2022/07/04 00:26:38;;;;;;;3.03;2.05;;;;;;;;;;5017801;28;20394;-78
2022/07/04 00:29:04;;;;;;;2.33;2.20;;;;;;;;;;5017568;28;20033;-77
2022/07/04 00:31:29;;;;;;;2.50;2.30;;;;;;;;;;5035954;28;20433;-77
2022/07/04 00:33:54;;;;;;;2.60;2.35;;;;;;;;;;5036338;28;20372;-77
2022/07/04 00:36:20;;;;;;;2.55;2.20;;;;;;;;;;5035848;28;20075;-78
2022/07/04 00:38:45;;;;;;;3.63;2.28;;;;;;;;;;5036117;28;20029;-78
2022/07/04 00:41:11;;;;;;;2.40;2.30;;;;;;;;;;5035959;28;20014;-76
2022/07/04 00:43:36;;;;;;;2.47;2.30;;;;;;;;;;5017967;28;20041;-75
2022/07/04 00:46:08;;;;;;;2.42;2.22;;;;;;;;;;5035847;28;20022;-78
2022/07/04 00:48:33;;;;;;;2.45;2.35;;;;;;;;;;5036207;28;20101;-77
2022/07/04 00:50:59;;;;;;;2.47;2.35;;;;;;;;;;5036022;28;20041;-77
2022/07/04 00:53:24;;;;;;;2.55;2.40;;;;;;;;;;5035743;28;20531;-76
2022/07/04 00:55:50;;;;;;;2.50;2.40;;;;;;;;;;5035714;28;20463;-76
2022/07/04 00:58:18;;;;;;;2.92;2.60;;;;;;;;;;5035576;28;20539;-75
2022/07/04 01:00:44;;;;;;;3.40;2.60;;;;;;;;;;5035381;28;20018;-76
2022/07/04 01:03:09;;;;;;;2.40;2.30;;;;;;;;;;5035737;28;20035;-78
2022/07/04 01:05:34;;;;;;;2.35;2.25;;;;;;;;;;5035268;28;20041;-77
2022/07/04 01:08:00;;;;;;;2.80;2.58;;;;;;;;;;5035086;28;20033;-77
2022/07/04 01:10:26;;;;;;;3.15;2.45;;;;;;;;;;5035137;28;20025;-77
2022/07/04 01:12:51;;;;;;;2.90;2.40;;;;;;;;;;5035878;28;20096;-78
2022/07/04 01:15:17;;;;;;;3.25;2.50;;;;;;;;;;5035608;28;20072;-76
2022/07/04 01:17:42;;;;;;;2.53;2.33;;;;;;;;;;5034292;28;20033;-77
2022/07/04 01:20:14;;;;;;;2.45;2.35;;;;;;;;;;5035105;28;20025;-77
2022/07/04 01:22:39;;;;;;;2.45;2.35;;;;;;;;;;5035390;28;20025;-77
2022/07/04 01:25:05;;;;;;;4.07;2.55;;;;;;;;;;5017532;28;20041;-78
2022/07/04 01:27:31;;;;;;;2.50;2.33;;;;;;;;;;5000835;28;20116;-76
2022/07/04 01:29:56;;;;;;;2.53;2.33;;;;;;;;;;5035135;28;20018;-77
2022/07/04 01:32:22;;;;;;;2.30;2.20;;;;;;;;;;5017033;28;20395;-77
2022/07/04 01:34:47;;;;;;;2.90;2.70;;;;;;;;;;5034754;28;20034;-77
2022/07/04 01:37:12;;;;;;;2.50;2.40;;;;;;;;;;5034771;28;20425;-77
2022/07/04 01:39:38;;;;;;;3.38;2.42;;;;;;;;;;5034828;28;20017;-77
2022/07/04 01:42:04;;;;;;;2.50;2.40;;;;;;;;;;5016956;28;20026;-77
2022/07/04 01:44:29;;;;;;;2.83;2.42;;;;;;;;;;5034856;28;20021;-78
2022/07/04 01:46:55;;;;;;;2.70;2.50;;;;;;;;;;5035008;28;20065;-77
2022/07/04 01:49:20;;;;;;;2.78;2.58;;;;;;;;;;5034492;28;20033;-77
2022/07/04 01:51:46;;;;;;;2.70;2.50;;;;;;;;;;5034717;28;20022;-78
2022/07/04 01:54:12;;;;;;;3.42;2.53;;;;;;;;;;5034305;28;20025;-77
2022/07/04 01:56:38;;;;;;;2.38;2.25;;;;;;;;;;5034528;28;20029;-71
2022/07/04 01:59:05;;;;;;;3.10;2.60;;;;;;;;;;5034507;28;20045;-71
2022/07/04 02:01:30;;;;;;;2.28;2.17;;;;;;;;;;5034517;28;20029;-71
2022/07/04 02:04:00;;;;;;;2.95;2.75;;;;;;;;;;5034393;28;20379;-71
2022/07/04 02:06:25;;;;;;;2.53;2.42;;;;;;;;;;5034402;28;20060;-71
2022/07/04 02:14:19;;;;;;;3.28;2.50;;;;;;;;;;5034547;28;20034;-70
2022/07/04 02:16:44;;;;;;;2.90;2.70;;;;;;;;;;5034044;28;20027;-70
2022/07/04 02:19:10;;;;;;;2.58;2.47;;;;;;;;;;5016966;28;20460;-70
2022/07/04 02:21:36;;;;;;;2.72;2.53;;;;;;;;;;5016799;28;20045;-70
2022/07/04 02:24:01;;;;;;;2.63;2.53;;;;;;;;;;5034140;28;20049;-70
2022/07/04 02:26:26;;;;;;;2.22;2.13;;;;;;;;;;5033856;28;20032;-70
2022/07/04 02:28:52;;;;;;;2.38;2.28;;;;;;;;;;5033952;28;20068;-70
2022/07/04 02:31:17;;;;;;;3.05;2.65;;;;;;;;;;5033874;28;20052;-71
2022/07/04 02:33:43;;;;;;;3.25;2.92;;;;;;;;;;5033667;28;20391;-70
2022/07/04 02:36:08;;;;;;;3.58;3.33;;;;;;;;;;5034100;28;20016;-70
2022/07/04 02:38:34;;;;;;;3.30;2.75;;;;;;;;;;5033755;28;20531;-70
2022/07/04 02:40:59;;;;;;;4.57;3.00;;;;;;;;;;5033715;28;20104;-70
2022/07/04 02:43:24;;;;;;;2.88;2.65;;;;;;;;;;5015881;28;20054;-70
2022/07/04 02:45:50;;;;;;;3.22;2.55;;;;;;;;;;5033843;28;20463;-70
2022/07/04 02:48:15;;;;;;;3.70;2.65;;;;;;;;;;5033727;28;20060;-71
2022/07/04 02:50:40;;;;;;;4.68;3.03;;;;;;;;;;5034068;28;20096;-70
2022/07/04 02:53:06;;;;;;;5.20;2.80;;;;;;;;;;5033542;28;20497;-70
2022/07/04 02:55:31;;;;;;;3.42;3.17;;;;;;;;;;5033675;28;20531;-70
2022/07/04 02:57:57;;;;;;;3.17;2.95;;;;;;;;;;5033505;28;20116;-70
2022/07/04 03:00:22;;;;;;;2.90;2.63;;;;;;;;;;5034101;28;20014;-70
2022/07/04 03:02:48;;;;;;;3.67;2.55;;;;;;;;;;5033417;28;20060;-71
2022/07/04 03:05:13;;;;;;;2.80;2.53;;;;;;;;;;5033740;28;20025;-71
2022/07/04 03:07:39;;;;;;;2.63;2.20;;;;;;;;;;5033394;28;20029;-70
2022/07/04 03:10:04;;;;;;;2.63;2.30;;;;;;;;;;5033500;28;20423;-70
2022/07/04 03:12:29;;;;;;;3.05;2.42;;;;;;;;;;5033338;28;20029;-70
2022/07/04 03:14:55;;;;;;;2.58;2.38;;;;;;;;;;5033286;28;20021;-71
2022/07/04 03:17:21;;;;;;;2.35;2.25;;;;;;;;;;5033311;28;20460;-71
2022/07/04 03:19:47;;;;;;;2.88;2.67;;;;;;;;;;5033551;28;20024;-78
2022/07/04 03:22:12;;;;;;;3.10;2.83;;;;;;;;;;5030403;28;20463;-78
2022/07/04 03:24:38;;;;;;;2.97;2.70;;;;;;;;;;5013757;28;20049;-77
2022/07/04 03:27:04;;;;;;;4.22;2.95;;;;;;;;;;5037556;28;20058;-77
2022/07/04 03:29:29;;;;;;;3.08;2.88;;;;;;;;;;5037421;28;20025;-77
2022/07/04 03:31:55;;;;;;;3.15;2.85;;;;;;;;;;5037072;28;20081;-77
2022/07/04 03:34:20;;;;;;;3.30;3.10;;;;;;;;;;5037026;28;20502;-77
2022/07/04 03:36:45;;;;;;;3.40;3.08;;;;;;;;;;5036933;28;20490;-77
2022/07/04 03:39:11;;;;;;;2.83;2.63;;;;;;;;;;5037232;28;20100;-78
2022/07/04 03:41:36;;;;;;;2.88;2.78;;;;;;;;;;5019264;28;20376;-77
2022/07/04 03:44:02;;;;;;;2.70;2.55;;;;;;;;;;5036989;28;20025;-77
2022/07/04 03:46:27;;;;;;;2.92;2.67;;;;;;;;;;5036771;28;20030;-77
2022/07/04 03:48:53;;;;;;;3.30;3.00;;;;;;;;;;5036784;28;20060;-77
2022/07/04 03:51:18;;;;;;;3.38;3.17;;;;;;;;;;5036780;28;20030;-78
2022/07/04 03:53:44;;;;;;;3.35;3.15;;;;;;;;;;5036637;28;20058;-77
2022/07/04 03:56:09;;;;;;;3.65;3.20;;;;;;;;;;5037217;28;20073;-77
2022/07/04 03:58:34;;;;;;;3.53;3.05;;;;;;;;;;5036373;28;20092;-74
2022/07/04 04:01:00;;;;;;;3.20;2.83;;;;;;;;;;5019284;28;20029;-78
2022/07/04 04:06:11;;;;;;;2.97;2.85;;;;;;;;;;5018680;28;20033;-77
2022/07/04 04:08:36;;;;;;;3.42;3.13;;;;;;;;;;5018666;28;20034;-77
2022/07/04 04:11:02;;;;;;;3.42;3.13;;;;;;;;;;5036191;28;20040;-77
2022/07/04 04:13:27;;;;;;;3.67;3.45;;;;;;;;;;5030054;28;20021;-77
2022/07/04 04:15:53;;;;;;;3.72;3.42;;;;;;;;;;5032974;28;20173;-77
2022/07/04 04:18:18;;;;;;;3.83;3.63;;;;;;;;;;5032487;28;20029;-77
2022/07/04 04:20:45;;;;;;;4.00;3.70;;;;;;;;;;5033209;28;20025;-77
2022/07/04 04:23:12;;;;;;;4.03;3.83;;;;;;;;;;5032938;28;20049;-76
2022/07/04 04:25:37;;;;;;;4.07;3.83;;;;;;;;;;5031830;28;20065;-77
2022/07/04 04:28:03;;;;;;;4.07;3.63;;;;;;;;;;5031300;28;20453;-77
2022/07/04 04:30:28;;;;;;;3.63;3.33;;;;;;;;;;5031248;28;20090;-78
2022/07/04 04:32:54;;;;;;;4.38;3.97;;;;;;;;;;5030012;28;20040;-78
2022/07/04 04:35:19;;;;;;;4.03;3.63;;;;;;;;;;5031045;28;20032;-78
2022/07/04 04:37:44;;;;;;;4.00;3.70;;;;;;;;;;5030425;28;20018;-77
2022/07/04 04:40:10;;;;;;;4.35;4.05;;;;;;;;;;5030450;28;20380;-72
2022/07/04 04:42:37;;;;;;;6.00;3.63;;;;;;;;;;5031961;28;20108;-77
2022/07/04 04:45:03;;;;;;;4.72;3.75;;;;;;;;;;5031491;28;20022;-77
2022/07/04 04:47:29;;;;;;;3.78;3.42;;;;;;;;;;5032156;28;20383;-77
2022/07/04 04:49:54;;;;;;;3.65;3.45;;;;;;;;;;5034502;28;20158;-78
2022/07/04 04:52:19;;;;;;;3.67;3.38;;;;;;;;;;5017428;28;20041;-77
2022/07/04 04:54:45;;;;;;;3.92;3.50;;;;;;;;;;5035293;28;20037;-76
2022/07/04 04:57:10;;;;;;;3.20;3.00;;;;;;;;;;5034954;28;20030;-77
2022/07/04 04:59:36;;;;;;;3.78;3.35;;;;;;;;;;5035143;28;20065;-78
2022/07/04 05:02:02;;;;;;;2.95;2.80;;;;;;;;;;5035104;28;20026;-77
2022/07/04 05:04:27;;;;;;;3.25;2.95;;;;;;;;;;5035167;28;20108;-77
2022/07/04 05:06:53;;;;;;;3.50;3.30;;;;;;;;;;5034842;28;20032;-76
2022/07/04 05:09:19;;;;;;;4.07;3.78;;;;;;;;;;5034886;28;20523;-72
2022/07/04 05:11:44;;;;;;;4.18;3.78;;;;;;;;;;5034902;28;20108;-72
2022/07/04 05:14:09;;;;;;;4.15;3.53;;;;;;;;;;5034840;28;20030;-72
2022/07/04 05:16:35;;;;;;;4.20;3.90;;;;;;;;;;5034594;28;20453;-72
2022/07/04 05:19:00;;;;;;;3.33;3.13;;;;;;;;;;5034960;28;20038;-73
2022/07/04 05:21:28;;;;;;;3.83;3.35;;;;;;;;;;5033916;28;20013;-73
2022/07/04 05:23:54;;;;;;;3.80;3.47;;;;;;;;;;5033750;28;20041;-72
2022/07/04 05:26:19;;;;;;;3.92;3.70;;;;;;;;;;5034616;28;20029;-73
2022/07/04 05:28:45;;;;;;;3.80;3.47;;;;;;;;;;5035154;28;20372;-73
2022/07/04 05:31:10;;;;;;;3.65;3.45;;;;;;;;;;5017096;28;20040;-72
2022/07/04 05:33:35;;;;;;;4.25;3.92;;;;;;;;;;5034855;28;20097;-72
2022/07/04 05:36:01;;;;;;;5.82;3.50;;;;;;;;;;5034402;28;20112;-72
2022/07/04 05:38:26;;;;;;;4.07;3.83;;;;;;;;;;5034710;28;20015;-72
2022/07/04 05:40:51;;;;;;;3.60;3.30;;;;;;;;;;5034935;28;20033;-72
2022/07/04 05:43:17;;;;;;;4.13;3.83;;;;;;;;;;5034669;28;20017;-72
2022/07/04 05:45:42;;;;;;;3.80;3.58;;;;;;;;;;5034070;28;20033;-72
2022/07/04 05:48:08;;;;;;;3.25;2.97;;;;;;;;;;5032822;28;20050;-72
2022/07/04 05:50:33;;;;;;;4.25;3.88;;;;;;;;;;5032739;28;20030;-72
2022/07/04 05:52:59;;;;;;;6.45;3.92;;;;;;;;;;5033182;28;20380;-72
2022/07/04 05:55:24;;;;;;;7.07;4.18;;;;;;;;;;5033487;28;20116;-72
2022/07/04 05:57:49;;;;;;;5.38;4.82;;;;;;;;;;5033570;28;20048;-72
2022/07/04 06:00:15;;;;;;;5.32;4.15;;;;;;;;;;5033728;28;20471;-72
2022/07/04 06:02:41;;;;;;;4.60;4.20;;;;;;;;;;5033847;28;20579;-72
2022/07/04 06:05:07;;;;;;;3.97;3.78;;;;;;;;;;5016947;28;20428;-72
2022/07/04 06:07:32;;;;;;;3.63;3.40;;;;;;;;;;5017176;28;20022;-72
2022/07/04 06:09:58;;;;;;;3.92;3.65;;;;;;;;;;5016551;28;20029;-72
2022/07/04 06:12:23;;;;;;;4.53;4.07;;;;;;;;;;5034085;28;20052;-72
2022/07/04 06:14:48;;;;;;;4.22;3.88;;;;;;;;;;5016321;28;20040;-72
2022/07/04 06:17:14;;;;;;;4.55;4.15;;;;;;;;;;5034577;28;20026;-72
2022/07/04 06:19:39;;;;;;;5.18;4.78;;;;;;;;;;5034005;28;20069;-72
2022/07/04 06:22:04;;;;;;;4.70;4.30;;;;;;;;;;5016191;28;20464;-72
2022/07/04 06:24:30;;;;;;;5.53;5.10;;;;;;;;;;5033756;28;20077;-72
2022/07/04 06:26:55;;;;;;;4.47;4.18;;;;;;;;;;5034459;28;20025;-72
2022/07/04 06:29:21;;;;;;;4.85;4.35;;;;;;;;;;5034145;28;20033;-72
2022/07/04 06:31:46;;;;;;;4.80;4.50;;;;;;;;;;5034115;28;20368;-72
2022/07/04 06:36:56;;;;;;;5.22;4.90;;;;;;;;;;5034016;28;20037;-72
2022/07/04 06:39:21;;;;;;;5.68;5.18;;;;;;;;;;5016019;28;20022;-72
2022/07/04 06:41:47;;;;;;;6.43;5.13;;;;;;;;;;5034013;28;20025;-72
2022/07/04 06:44:12;;;;;;;5.30;4.85;;;;;;;;;;5033906;28;20029;-72
2022/07/04 06:46:38;;;;;;;6.07;5.05;;;;;;;;;;5033610;28;20120;-72
2022/07/04 06:49:03;;;;;;;5.47;5.03;;;;;;;;;;5033623;28;20028;-72
2022/07/04 06:51:28;;;;;;;5.50;5.03;;;;;;;;;;5033559;28;20501;-72
2022/07/04 06:53:54;;;;;;;4.47;4.07;;;;;;;;;;5033720;28;20109;-72
2022/07/04 06:56:20;;;;;;;6.15;4.15;;;;;;;;;;5034918;28;20029;-72
2022/07/04 06:58:45;;;;;;;4.38;3.90;;;;;;;;;;5006039;28;20089;-72
2022/07/04 07:01:10;;;;;;;5.10;4.65;;;;;;;;;;5040100;28;20028;-72
2022/07/04 07:03:36;;;;;;;6.20;5.70;;;;;;;;;;5040103;28;20076;-72
2022/07/04 07:06:02;;;;;;;5.70;5.30;;;;;;;;;;5040058;28;20483;-72
2022/07/04 07:08:30;;;;;;;7.60;5.40;;;;;;;;;;5040051;28;20444;-72
2022/07/04 07:10:56;;;;;;;4.60;4.20;;;;;;;;;;5040301;28;20037;-72
2022/07/04 07:13:22;;;;;;;6.05;5.50;;;;;;;;;;5040010;28;20036;-72
2022/07/04 07:15:47;;;;;;;6.38;5.80;;;;;;;;;;5022265;28;20035;-72
2022/07/04 07:18:12;;;;;;;6.22;5.63;;;;;;;;;;5022250;28;20040;-72
2022/07/04 07:20:38;;;;;;;6.10;5.50;;;;;;;;;;5039924;28;20090;-72
2022/07/04 07:23:03;;;;;;;6.22;5.65;;;;;;;;;;5039953;28;20101;-72
2022/07/04 07:25:29;;;;;;;8.07;5.55;;;;;;;;;;5040194;28;20057;-72
2022/07/04 07:27:54;;;;;;;27.95;8.02;;;;;;;;;;5040422;28;20044;-72
2022/07/04 07:30:20;;;;;;;35.80;10.88;;;;;;;;;;5022198;28;20463;-72
2022/07/04 07:32:45;;;;;;;14.10;6.13;;;;;;;;;;5039791;28;20021;-72
2022/07/04 07:35:11;;;;;;;6.18;5.47;;;;;;;;;;5039689;28;20064;-72
2022/07/04 07:37:36;;;;;;;11.68;6.47;;;;;;;;;;5040094;28;20020;-72
2022/07/04 07:40:02;;;;;;;16.42;8.18;;;;;;;;;;5039772;28;20025;-72
2022/07/04 07:42:27;;;;;;;4.50;4.13;;;;;;;;;;5040012;28;20450;-72
2022/07/04 07:44:53;;;;;;;4.03;3.70;;;;;;;;;;5021975;28;20076;-72
2022/07/04 07:47:18;;;;;;;3.78;3.47;;;;;;;;;;5039977;28;20053;-72
2022/07/04 07:49:44;;;;;;;3.83;3.53;;;;;;;;;;5005567;28;20090;-72
2022/07/04 07:52:10;;;;;;;3.83;3.63;;;;;;;;;;5022626;28;20057;-72
2022/07/04 07:54:35;;;;;;;3.70;3.40;;;;;;;;;;5039565;28;20025;-72
2022/07/04 07:57:00;;;;;;;3.80;3.47;;;;;;;;;;5022204;28;20014;-72
2022/07/04 07:59:26;;;;;;;3.80;3.40;;;;;;;;;;5039878;28;20097;-72
2022/07/04 08:01:51;;;;;;;3.30;3.10;;;;;;;;;;5039538;28;20021;-72
2022/07/04 08:04:35;;;;;;;4.28;3.97;;;;;;;;;;5022230;28;20033;-72
2022/07/04 08:07:02;;;;;;;6.03;4.20;;;;;;;;;;5039796;28;20141;-72
2022/07/04 08:09:28;;;;;;;18.25;5.18;;;;;;;;;;5036136;28;20025;-72
2022/07/04 08:11:54;;;;;;;8.73;4.95;;;;;;;;;;5036375;28;20080;-72
2022/07/04 08:14:19;;;;;;;3.60;3.40;;;;;;;;;;5036554;28;20464;-72
2022/07/04 08:16:44;;;;;;;3.58;2.97;;;;;;;;;;5036537;28;20041;-72
2022/07/04 08:19:10;;;;;;;3.65;3.45;;;;;;;;;;5036535;28;20025;-72
2022/07/04 08:21:35;;;;;;;4.07;3.75;;;;;;;;;;5036500;28;20032;-72
2022/07/04 08:24:01;;;;;;;4.80;4.28;;;;;;;;;;5036050;28;20051;-72
2022/07/04 08:26:27;;;;;;;4.10;3.80;;;;;;;;;;5036401;28;20025;-72
2022/07/04 08:28:55;;;;;;;5.07;4.63;;;;;;;;;;5036334;28;20030;-72
2022/07/04 08:31:20;;;;;;;5.78;4.90;;;;;;;;;;5036020;28;20034;-72
2022/07/04 08:33:47;;;;;;;6.72;5.55;;;;;;;;;;5035985;28;20021;-72
2022/07/04 08:36:13;;;;;;;12.52;7.18;;;;;;;;;;5036130;28;20027;-72
2022/07/04 08:38:38;;;;;;;14.50;8.77;;;;;;;;;;5036157;28;20020;-72
2022/07/04 08:41:04;;;;;;;14.77;8.27;;;;;;;;;;5035805;28;20025;-72
2022/07/04 08:43:33;;;;;;;14.57;8.02;;;;;;;;;;5036076;28;20100;-72
2022/07/04 08:45:59;;;;;;;10.88;7.07;;;;;;;;;;5036052;28;20033;-72
2022/07/04 08:48:27;;;;;;;9.73;6.50;;;;;;;;;;5035721;28;20028;-72
2022/07/04 08:51:00;;;;;;;12.20;6.85;;;;;;;;;;5035657;28;20048;-72
2022/07/04 08:53:30;;;;;;;11.13;7.38;;;;;;;;;;5017886;28;20033;-72
2022/07/04 08:58:41;;;;;;;7.65;5.10;;;;;;;;;;5035753;28;20475;-72
2022/07/04 09:01:08;;;;;;;8.02;4.82;;;;;;;;;;5035751;28;20025;-72
2022/07/04 09:03:34;;;;;;;6.40;4.88;;;;;;;;;;5035928;28;20088;-72
2022/07/04 09:06:00;;;;;;;6.15;5.40;;;;;;;;;;5017702;28;20460;-72
2022/07/04 09:08:26;;;;;;;6.40;5.80;;;;;;;;;;5035905;28;20460;-72
2022/07/04 09:10:51;;;;;;;5.35;4.22;;;;;;;;;;5035308;28;20026;-72
2022/07/04 09:13:17;;;;;;;8.95;4.93;;;;;;;;;;5035780;28;20038;-72
2022/07/04 09:15:44;;;;;;;6.30;5.03;;;;;;;;;;5017629;28;20060;-72
2022/07/04 09:18:20;;;;;;;5.10;4.38;;;;;;;;;;5035440;28;20036;-72
2022/07/04 09:20:45;;;;;;;5.63;4.97;;;;;;;;;;5016204;28;20463;-72
2022/07/04 09:23:18;;;;;;;5.20;4.43;;;;;;;;;;5034839;28;20042;-72
2022/07/04 09:25:44;;;;;;;26.70;8.70;;;;;;;;;;5035503;28;20029;-72
2022/07/04 09:28:09;;;;;;;21.80;6.03;;;;;;;;;;5017255;28;20120;-72
2022/07/04 09:30:46;;;;;;;11.82;5.63;;;;;;;;;;5034885;28;20029;-72
2022/07/04 09:33:11;;;;;;;17.02;5.95;;;;;;;;;;5017140;28;20075;-72
2022/07/04 09:35:36;;;;;;;48.88;7.97;;;;;;;;;;5035043;28;20053;-72
2022/07/04 09:38:05;;;;;;;6.63;5.40;;;;;;;;;;5034735;28;20376;-72
2022/07/04 09:40:30;;;;;;;5.32;4.25;;;;;;;;;;5035018;28;20029;-72
2022/07/04 09:42:57;;;;;;;6.90;4.78;;;;;;;;;;5035222;28;20025;-72
2022/07/04 09:45:24;;;;;;;6.55;4.75;;;;;;;;;;5034909;28;20022;-72
2022/07/04 09:47:50;;;;;;;6.25;5.60;;;;;;;;;;5034885;28;20036;-72
2022/07/04 09:50:16;;;;;;;7.97;5.10;;;;;;;;;;5034538;28;20489;-72
2022/07/04 09:53:01;;;;;;;4.43;4.07;;;;;;;;;;5017126;28;20112;-72
2022/07/04 09:55:31;;;;;;;6.60;4.82;;;;;;;;;;5034902;28;20036;-72
2022/07/04 09:57:59;;;;;;;7.05;4.22;;;;;;;;;;5034990;28;20017;-72
2022/07/04 10:00:27;;;;;;;4.05;3.75;;;;;;;;;;5034610;28;20014;-72
2022/07/04 10:02:53;;;;;;;5.80;5.30;;;;;;;;;;5034574;28;20033;-72
2022/07/04 10:05:22;;;;;;;5.13;4.72;;;;;;;;;;5034239;28;20390;-72
2022/07/04 10:07:48;;;;;;;9.98;6.60;;;;;;;;;;5034412;28;20033;-72
2022/07/04 10:10:21;;;;;;;7.80;5.57;;;;;;;;;;5016478;28;20024;-72
2022/07/04 10:12:48;;;;;;;9.60;5.30;;;;;;;;;;5034305;28;20033;-72
2022/07/04 10:15:13;;;;;;;9.13;5.53;;;;;;;;;;5034587;28;20420;-76
2022/07/04 10:17:40;;;;;;;7.65;6.07;;;;;;;;;;5000048;28;20025;-76
2022/07/04 10:20:06;;;;;;;5.95;4.45;;;;;;;;;;5016333;28;20478;-76
2022/07/04 10:22:31;;;;;;;5.68;4.75;;;;;;;;;;5034090;28;20029;-76
2022/07/04 10:24:57;;;;;;;5.32;4.63;;;;;;;;;;5033950;28;20025;-76
2022/07/04 10:27:23;;;;;;;9.35;6.00;;;;;;;;;;5016157;28;20113;-76
2022/07/04 10:29:48;;;;;;;5.22;4.20;;;;;;;;;;5033860;28;20021;-76
2022/07/04 10:32:14;;;;;;;42.42;9.05;;;;;;;;;;5033442;28;20483;-76
2022/07/04 10:34:41;;;;;;;6.85;4.68;;;;;;;;;;5034035;28;20049;-76
2022/07/04 10:37:06;;;;;;;6.88;4.88;;;;;;;;;;5034322;28;20443;-76
2022/07/04 10:39:32;;;;;;;8.07;5.63;;;;;;;;;;5034007;28;20097;-76
2022/07/04 10:41:59;;;;;;;8.85;5.80;;;;;;;;;;4999646;28;20036;-76
2022/07/04 10:44:26;;;;;;;11.00;5.80;;;;;;;;;;5033654;28;20387;-76
2022/07/04 10:46:53;;;;;;;7.22;6.30;;;;;;;;;;5016764;28;20096;-76
2022/07/04 10:49:19;;;;;;;29.27;8.23;;;;;;;;;;5033617;28;20025;-76
2022/07/04 10:51:49;;;;;;;10.30;6.43;;;;;;;;;;5033601;28;20029;-76
2022/07/04 10:54:16;;;;;;;22.97;6.77;;;;;;;;;;5033800;28;20092;-76
2022/07/04 10:56:44;;;;;;;14.07;6.18;;;;;;;;;;5015842;28;20162;-76
2022/07/04 10:59:13;;;;;;;6.97;6.10;;;;;;;;;;5033522;28;20017;-76
2022/07/04 11:01:38;;;;;;;5.85;5.13;;;;;;;;;;5034070;28;20014;-76
2022/07/04 11:04:03;;;;;;;6.55;4.68;;;;;;;;;;5015766;28;20372;-76
2022/07/04 11:06:36;;;;;;;5.43;4.95;;;;;;;;;;5040123;23;20058;-76
2022/07/04 11:09:20;;;;;;;5.82;5.32;;;;;;;;;;5034030;28;20075;-76
2022/07/04 11:11:56;;;;;;;5.18;4.68;;;;;;;;;;5033692;28;20116;-76
2022/07/04 11:14:40;;;;;;;5.40;4.80;;;;;;;;;;5033324;28;20400;-76
2022/07/04 11:17:32;;;;;;;7.05;6.35;;;;;;;;;;5033950;28;20041;-76
2022/07/04 11:19:59;;;;;;;6.82;6.13;;;;;;;;;;5033880;28;20383;-76
2022/07/04 11:22:24;;;;;;;5.95;5.45;;;;;;;;;;5033317;28;20026;-76
2022/07/04 11:24:49;;;;;;;6.10;5.65;;;;;;;;;;5033312;28;20057;-77
2022/07/04 11:27:15;;;;;;;6.65;6.00;;;;;;;;;;5015989;28;20029;-76
2022/07/04 11:29:53;;;;;;;9.15;6.00;;;;;;;;;;5033279;28;20091;-76
2022/07/04 11:32:19;;;;;;;6.85;4.80;;;;;;;;;;5033527;28;20022;-76
2022/07/04 11:34:46;;;;;;;6.43;5.57;;;;;;;;;;5033156;28;20033;-76
2022/07/04 11:37:11;;;;;;;7.22;5.47;;;;;;;;;;5033454;28;20467;-76
2022/07/04 11:39:37;;;;;;;6.05;5.43;;;;;;;;;;5033175;28;20025;-76
2022/07/04 11:45:02;;;;;;;5.45;4.95;;;;;;;;;;5036578;28;20030;-76
2022/07/04 11:47:36;;;;;;;7.22;4.80;;;;;;;;;;5037115;28;20383;-76
2022/07/04 11:50:04;;;;;;;7.25;5.65;;;;;;;;;;5037073;28;20083;-76
2022/07/04 11:52:30;;;;;;;6.35;5.72;;;;;;;;;;5036797;28;20460;-76
2022/07/04 11:54:56;;;;;;;6.47;5.50;;;;;;;;;;5036617;28;20033;-76
2022/07/04 11:57:21;;;;;;;6.63;4.85;;;;;;;;;;5036929;28;20048;-76
2022/07/04 11:59:57;;;;;;;7.55;5.47;;;;;;;;;;5037152;28;20025;-76
2022/07/04 12:02:23;;;;;;;6.32;5.70;;;;;;;;;;5036853;28;20031;-76
2022/07/04 12:04:49;;;;;;;10.38;6.72;;;;;;;;;;5019149;28;20028;-76
2022/07/04 12:07:16;;;;;;;7.20;6.50;;;;;;;;;;5036318;28;20129;-76
2022/07/04 12:09:42;;;;;;;10.00;5.07;;;;;;;;;;5036719;28;20112;-76
2022/07/04 12:12:08;;;;;;;5.88;5.38;;;;;;;;;;5036421;28;20068;-75
2022/07/04 12:14:34;;;;;;;4.15;3.85;;;;;;;;;;5036553;28;20034;-76
2022/07/04 12:17:10;;;;;;;4.75;4.35;;;;;;;;;;5018964;28;20093;-76
2022/07/04 12:19:35;;;;;;;5.47;4.07;;;;;;;;;;5018562;28;20029;-76
2022/07/04 12:22:01;;;;;;;5.55;4.50;;;;;;;;;;5036503;28;20076;-76
2022/07/04 12:24:27;;;;;;;5.70;5.10;;;;;;;;;;5036160;28;20036;-74
2022/07/04 12:26:52;;;;;;;4.93;4.50;;;;;;;;;;5036143;28;20022;-76
2022/07/04 12:29:22;;;;;;;5.80;4.65;;;;;;;;;;5018982;28;20392;-76
2022/07/04 12:31:50;;;;;;;4.93;4.45;;;;;;;;;;5035752;28;20510;-76
2022/07/04 12:34:16;;;;;;;3.80;3.45;;;;;;;;;;5035537;28;20124;-76
2022/07/04 12:36:52;;;;;;;6.25;3.97;;;;;;;;;;5036255;28;20053;-76
2022/07/04 12:39:33;;;;;;;3.63;3.38;;;;;;;;;;5036142;28;20080;-76
2022/07/04 12:42:09;;;;;;;4.20;3.17;;;;;;;;;;5034755;28;20029;-76
2022/07/04 12:44:35;;;;;;;3.50;3.00;;;;;;;;;;5034688;28;20034;-76
2022/07/04 12:47:02;;;;;;;3.38;3.08;;;;;;;;;;5034700;28;20016;-76
2022/07/04 12:49:28;;;;;;;4.50;3.53;;;;;;;;;;5035132;28;20092;-77
2022/07/04 12:52:04;;;;;;;3.08;2.97;;;;;;;;;;5035338;28;20029;-77
2022/07/04 12:54:29;;;;;;;2.70;2.50;;;;;;;;;;5034465;28;20419;-76
2022/07/04 12:57:03;;;;;;;2.45;2.35;;;;;;;;;;5033573;28;20097;-77
2022/07/04 12:59:28;;;;;;;2.25;2.15;;;;;;;;;;5035017;28;20034;-76
2022/07/04 13:01:54;;;;;;;3.67;2.70;;;;;;;;;;5034988;28;20021;-76
2022/07/04 13:04:19;;;;;;;2.22;2.13;;;;;;;;;;5034542;28;20029;-76
2022/07/04 13:06:44;;;;;;;2.50;2.40;;;;;;;;;;5034216;28;20506;-76
2022/07/04 13:09:10;;;;;;;2.95;2.47;;;;;;;;;;5034567;28;20100;-76
2022/07/04 13:14:20;;;;;;;2.78;2.58;;;;;;;;;;5009177;28;20503;-76
2022/07/04 13:16:45;;;;;;;2.63;2.53;;;;;;;;;;5030848;28;20029;-76
2022/07/04 13:19:11;;;;;;;2.80;2.60;;;;;;;;;;5030495;28;20273;-76
2022/07/04 13:21:36;;;;;;;2.85;2.65;;;;;;;;;;5030341;28;20113;-76
2022/07/04 13:24:02;;;;;;;3.03;2.88;;;;;;;;;;5030343;28;20030;-76
2022/07/04 13:26:30;;;;;;;3.20;2.90;;;;;;;;;;5030147;28;20379;-76
2022/07/04 13:28:55;;;;;;;3.25;3.05;;;;;;;;;;5012594;28;20456;-76
2022/07/04 13:31:20;;;;;;;3.42;3.17;;;;;;;;;;5030325;28;20032;-76
2022/07/04 13:33:46;;;;;;;3.47;3.28;;;;;;;;;;5029603;28;20055;-77
2022/07/04 13:36:12;;;;;;;3.22;3.03;;;;;;;;;;5015776;28;20028;-77
2022/07/04 13:38:38;;;;;;;3.42;3.13;;;;;;;;;;5033851;28;20108;-76
2022/07/04 13:41:04;;;;;;;2.95;2.75;;;;;;;;;;5032846;28;20052;-76
2022/07/04 13:43:30;;;;;;;3.60;3.22;;;;;;;;;;5016869;28;20022;-77
2022/07/04 13:45:56;;;;;;;3.17;2.85;;;;;;;;;;5034375;28;20447;-65
2022/07/04 13:48:22;;;;;;;3.28;2.90;;;;;;;;;;5034527;28;20076;-77
2022/07/04 13:50:47;;;;;;;3.30;3.10;;;;;;;;;;5033887;28;20424;-76
2022/07/04 13:53:12;;;;;;;3.10;3.00;;;;;;;;;;5034380;28;20116;-76
2022/07/04 13:55:38;;;;;;;3.38;3.17;;;;;;;;;;5016419;28;20048;-77
2022/07/04 13:58:04;;;;;;;3.13;2.85;;;;;;;;;;5016041;28;20092;-76
2022/07/04 14:00:31;;;;;;;4.60;3.03;;;;;;;;;;5033945;28;20049;-77
2022/07/04 14:02:56;;;;;;;6.47;3.10;;;;;;;;;;5033438;28;20428;-76
2022/07/04 14:05:22;;;;;;;3.20;2.90;;;;;;;;;;5033419;28;20022;-76
2022/07/04 14:07:47;;;;;;;4.30;3.05;;;;;;;;;;5033353;28;20044;-77
2022/07/04 14:10:12;;;;;;;3.00;2.80;;;;;;;;;;5015910;28;20033;-76
2022/07/04 14:12:39;;;;;;;3.20;3.00;;;;;;;;;;5032579;28;20116;-77
2022/07/04 14:15:05;;;;;;;3.58;3.38;;;;;;;;;;5032410;28;20459;-77
2022/07/04 14:17:30;;;;;;;3.35;3.15;;;;;;;;;;5032650;28;20026;-76
2022/07/04 14:19:56;;;;;;;3.08;2.88;;;;;;;;;;5014966;28;20026;-77
2022/07/04 14:22:21;;;;;;;2.97;2.80;;;;;;;;;;5031633;28;20030;-76
2022/07/04 14:24:47;;;;;;;3.13;2.92;;;;;;;;;;5031549;28;20380;-76
2022/07/04 14:27:13;;;;;;;3.55;3.28;;;;;;;;;;5032159;28;20053;-76
2022/07/04 14:29:40;;;;;;;3.17;2.97;;;;;;;;;;5032873;28;20099;-76
2022/07/04 14:32:06;;;;;;;3.10;2.90;;;;;;;;;;5033624;28;20092;-76
2022/07/04 14:34:32;;;;;;;3.40;2.85;;;;;;;;;;5034027;28;20021;-76
2022/07/04 14:36:57;;;;;;;2.78;2.58;;;;;;;;;;5033801;28;20482;-76
2022/07/04 14:39:23;;;;;;;3.08;2.80;;;;;;;;;;5034117;28;20064;-76
2022/07/04 14:41:49;;;;;;;2.53;2.40;;;;;;;;;;5034156;28;20081;-76
2022/07/04 14:44:15;;;;;;;3.22;2.95;;;;;;;;;;5033697;28;20028;-76
2022/07/04 14:46:40;;;;;;;2.53;2.33;;;;;;;;;;5033623;28;20053;-76
2022/07/04 14:49:06;;;;;;;2.60;2.50;;;;;;;;;;4999916;28;20101;-76
2022/07/04 14:51:31;;;;;;;3.75;2.50;;;;;;;;;;5033577;28;20390;-76
2022/07/04 14:53:56;;;;;;;2.60;2.45;;;;;;;;;;5015912;28;20021;-77
2022/07/04 14:56:22;;;;;;;2.85;2.55;;;;;;;;;;5033498;28;20029;-76
2022/07/04 14:58:47;;;;;;;2.90;2.70;;;;;;;;;;5033500;28;20093;-76